createdAt,value
2022-12-15T00:00:45.814Z,998.67
2022-12-15T00:01:44.949Z,998.68
2022-12-15T00:02:45.342Z,998.66
2022-12-15T00:03:45.566Z,998.69
2022-12-15T00:04:45.627Z,998.69
2022-12-15T00:05:49.908Z,998.66
2022-12-15T00:06:46.131Z,998.69
2022-12-15T00:07:46.251Z,998.71
2022-12-15T00:08:46.506Z,998.75
2022-12-15T00:09:46.737Z,998.77
2022-12-15T00:10:46.992Z,998.73
2022-12-15T00:11:47.244Z,998.76
2022-12-15T00:12:47.519Z,998.77
2022-12-15T00:13:47.759Z,998.75
2022-12-15T00:14:48.013Z,998.72
2022-12-15T00:15:48.311Z,998.77
2022-12-15T00:16:48.536Z,998.77
2022-12-15T00:17:48.770Z,998.72
2022-12-15T00:18:49.022Z,998.74
2022-12-15T00:19:49.261Z,998.77
2022-12-15T00:20:49.544Z,998.76
2022-12-15T00:21:49.811Z,998.82
2022-12-15T00:22:50.069Z,998.83
2022-12-15T00:23:50.309Z,998.85
2022-12-15T00:24:50.570Z,998.88
2022-12-15T00:25:50.814Z,998.89
2022-12-15T00:26:51.071Z,998.91
2022-12-15T00:27:51.319Z,998.96
2022-12-15T00:28:51.564Z,998.95
2022-12-15T00:29:51.817Z,998.96
2022-12-15T00:30:54.063Z,998.93
2022-12-15T00:31:53.337Z,998.93
2022-12-15T00:32:52.496Z,998.90
2022-12-15T00:33:52.728Z,998.86
2022-12-15T00:34:52.977Z,998.85
2022-12-15T00:35:53.229Z,998.87
2022-12-15T00:36:53.509Z,998.84
2022-12-15T00:37:53.750Z,998.82
2022-12-15T00:38:54.852Z,998.79
2022-12-15T00:39:54.186Z,998.83
2022-12-15T00:40:54.423Z,998.85
2022-12-15T00:41:54.675Z,998.83
2022-12-15T00:42:54.928Z,998.83
2022-12-15T00:43:55.166Z,998.87
2022-12-15T00:44:55.427Z,998.87
2022-12-15T00:45:55.689Z,998.86
2022-12-15T00:46:56.044Z,998.87
2022-12-15T00:47:56.200Z,998.88
2022-12-15T00:48:56.452Z,998.90
2022-12-15T00:49:56.697Z,998.93
2022-12-15T00:50:56.956Z,998.93
2022-12-15T00:51:57.248Z,998.92
2022-12-15T00:52:57.389Z,998.91
2022-12-15T00:53:57.635Z,998.89
2022-12-15T00:54:57.886Z,998.89
2022-12-15T00:55:58.134Z,998.85
2022-12-15T00:56:58.403Z,998.87
2022-12-15T00:58:05.560Z,998.83
2022-12-15T00:58:58.881Z,998.84
2022-12-15T00:59:59.136Z,998.84
2022-12-15T01:00:59.371Z,998.88
2022-12-15T01:01:59.748Z,998.88
2022-12-15T01:03:00.096Z,998.91
2022-12-15T01:04:00.050Z,998.93
2022-12-15T01:05:00.339Z,998.97
2022-12-15T01:06:00.438Z,998.98
2022-12-15T01:07:00.701Z,998.97
2022-12-15T01:08:00.941Z,998.98
2022-12-15T01:09:01.200Z,998.97
2022-12-15T01:10:01.440Z,998.98
2022-12-15T01:11:01.699Z,998.97
2022-12-15T01:12:01.963Z,998.97
2022-12-15T01:13:02.206Z,998.98
2022-12-15T01:14:02.451Z,998.95
2022-12-15T01:15:02.707Z,998.98
2022-12-15T01:16:03.007Z,998.98
2022-12-15T01:17:03.159Z,999.03
2022-12-15T01:18:03.406Z,999.08
2022-12-15T01:19:03.645Z,999.10
2022-12-15T01:20:03.884Z,999.12
2022-12-15T01:21:04.144Z,999.11
2022-12-15T01:22:04.397Z,999.10
2022-12-15T01:23:04.652Z,999.16
2022-12-15T01:24:04.912Z,999.14
2022-12-15T01:25:05.173Z,999.15
2022-12-15T01:26:05.412Z,999.16
2022-12-15T01:27:05.676Z,999.15
2022-12-15T01:28:05.926Z,999.25
2022-12-15T01:29:06.165Z,999.21
2022-12-15T01:30:06.395Z,999.23
2022-12-15T01:31:06.698Z,999.25
2022-12-15T01:32:06.844Z,999.23
2022-12-15T01:33:07.091Z,999.21
2022-12-15T01:34:07.346Z,999.16
2022-12-15T01:35:07.600Z,999.15
2022-12-15T01:36:07.856Z,999.12
2022-12-15T01:37:08.146Z,999.11
2022-12-15T01:38:08.266Z,999.14
2022-12-15T01:39:08.526Z,999.15
2022-12-15T01:40:08.769Z,999.12
2022-12-15T01:41:09.036Z,999.14
2022-12-15T01:42:09.298Z,999.13
2022-12-15T01:43:09.543Z,999.11
2022-12-15T01:44:09.788Z,999.13
2022-12-15T01:45:10.072Z,999.02
2022-12-15T01:46:10.315Z,999.03
2022-12-15T01:47:10.659Z,999.02
2022-12-15T01:48:10.793Z,999.01
2022-12-15T01:49:11.062Z,999.03
2022-12-15T01:50:11.306Z,999.05
2022-12-15T01:51:11.572Z,999.06
2022-12-15T01:52:11.855Z,999.02
2022-12-15T01:53:12.016Z,999.07
2022-12-15T01:54:12.259Z,999.08
2022-12-15T01:55:12.519Z,999.11
2022-12-15T01:56:12.765Z,999.08
2022-12-15T01:57:13.039Z,999.07
2022-12-15T01:58:13.315Z,999.10
2022-12-15T01:59:13.569Z,999.11
2022-12-15T02:00:13.822Z,999.11
2022-12-15T02:01:14.187Z,999.12
2022-12-15T02:02:14.396Z,999.13
2022-12-15T02:03:14.627Z,999.13
2022-12-15T02:04:14.760Z,999.16
2022-12-15T02:05:15.045Z,999.11
2022-12-15T02:06:15.298Z,999.12
2022-12-15T02:07:15.581Z,999.17
2022-12-15T02:08:15.727Z,999.14
2022-12-15T02:09:15.983Z,999.11
2022-12-15T02:10:16.233Z,999.12
2022-12-15T02:11:16.482Z,999.14
2022-12-15T02:12:16.751Z,999.15
2022-12-15T02:13:17.010Z,999.14
2022-12-15T02:14:17.466Z,999.17
2022-12-15T02:15:17.453Z,999.14
2022-12-15T02:16:17.778Z,999.16
2022-12-15T02:17:17.909Z,999.18
2022-12-15T02:18:18.172Z,999.21
2022-12-15T02:19:18.433Z,999.25
2022-12-15T02:20:18.686Z,999.22
2022-12-15T02:21:18.941Z,999.25
2022-12-15T02:22:19.217Z,999.29
2022-12-15T02:23:19.465Z,999.28
2022-12-15T02:24:19.713Z,999.28
2022-12-15T02:25:19.968Z,999.33
2022-12-15T02:26:20.220Z,999.35
2022-12-15T02:27:20.478Z,999.36
2022-12-15T02:28:20.728Z,999.37
2022-12-15T02:29:20.974Z,999.35
2022-12-15T02:30:21.230Z,999.35
2022-12-15T02:31:21.514Z,999.34
2022-12-15T02:32:21.699Z,999.35
2022-12-15T02:33:21.951Z,999.41
2022-12-15T02:34:22.219Z,999.45
2022-12-15T02:35:22.470Z,999.42
2022-12-15T02:36:22.730Z,999.49
2022-12-15T02:37:23.010Z,999.52
2022-12-15T02:38:23.286Z,999.55
2022-12-15T02:39:23.425Z,999.57
2022-12-15T02:40:23.719Z,999.57
2022-12-15T02:41:23.857Z,999.56
2022-12-15T02:42:24.128Z,999.60
2022-12-15T02:43:24.378Z,999.59
2022-12-15T02:44:24.637Z,999.59
2022-12-15T02:45:24.913Z,999.62
2022-12-15T02:46:25.160Z,999.62
2022-12-15T02:47:25.418Z,999.68
2022-12-15T02:48:25.686Z,999.68
2022-12-15T02:49:25.935Z,999.68
2022-12-15T02:50:26.204Z,999.66
2022-12-15T02:51:26.453Z,999.69
2022-12-15T02:52:26.770Z,999.69
2022-12-15T02:53:26.957Z,999.77
2022-12-15T02:54:27.162Z,999.73
2022-12-15T02:55:27.408Z,999.74
2022-12-15T02:56:27.670Z,999.75
2022-12-15T02:57:27.932Z,999.79
2022-12-15T02:58:28.200Z,999.82
2022-12-15T02:59:28.452Z,999.79
2022-12-15T03:00:28.722Z,999.81
2022-12-15T03:01:29.200Z,999.82
2022-12-15T03:02:29.322Z,999.78
2022-12-15T03:03:29.941Z,999.83
2022-12-15T03:04:29.637Z,999.80
2022-12-15T03:05:29.901Z,999.82
2022-12-15T03:06:30.168Z,999.81
2022-12-15T03:07:30.435Z,999.78
2022-12-15T03:08:30.713Z,999.76
2022-12-15T03:09:30.956Z,999.79
2022-12-15T03:10:31.217Z,999.75
2022-12-15T03:11:31.459Z,999.79
2022-12-15T03:12:31.725Z,999.82
2022-12-15T03:13:32.397Z,999.82
2022-12-15T03:14:32.246Z,999.81
2022-12-15T03:15:35.508Z,999.79
2022-12-15T03:16:32.725Z,999.81
2022-12-15T03:17:32.957Z,999.81
2022-12-15T03:18:33.216Z,999.81
2022-12-15T03:19:33.466Z,999.81
2022-12-15T03:20:33.719Z,999.83
2022-12-15T03:21:33.977Z,999.84
2022-12-15T03:22:34.249Z,999.88
2022-12-15T03:23:34.643Z,999.91
2022-12-15T03:24:34.777Z,999.96
2022-12-15T03:25:35.019Z,999.99
2022-12-15T03:26:35.280Z,1000.01
2022-12-15T03:27:35.558Z,1000.00
2022-12-15T03:28:35.818Z,1000.00
2022-12-15T03:29:36.070Z,999.99
2022-12-15T03:30:36.342Z,999.97
2022-12-15T03:31:36.666Z,999.96
2022-12-15T03:32:36.837Z,999.98
2022-12-15T03:33:37.108Z,999.98
2022-12-15T03:34:37.361Z,999.97
2022-12-15T03:35:37.888Z,999.98
2022-12-15T03:36:37.893Z,999.95
2022-12-15T03:37:38.059Z,999.93
2022-12-15T03:38:38.335Z,999.91
2022-12-15T03:39:38.585Z,999.92
2022-12-15T03:40:38.852Z,999.91
2022-12-15T03:41:39.101Z,999.90
2022-12-15T03:42:39.370Z,999.90
2022-12-15T03:43:39.661Z,999.90
2022-12-15T03:44:39.810Z,999.94
2022-12-15T03:45:40.106Z,999.98
2022-12-15T03:46:40.358Z,999.97
2022-12-15T03:47:40.624Z,999.95
2022-12-15T03:48:40.874Z,999.96
2022-12-15T03:49:41.119Z,999.95
2022-12-15T03:50:41.378Z,999.95
2022-12-15T03:51:41.609Z,999.94
2022-12-15T03:52:41.924Z,999.94
2022-12-15T03:53:42.072Z,999.94
2022-12-15T03:54:42.325Z,999.96
2022-12-15T03:55:42.576Z,999.97
2022-12-15T03:56:42.844Z,999.97
2022-12-15T03:57:43.109Z,1000.02
2022-12-15T03:58:43.368Z,1000.03
2022-12-15T03:59:43.612Z,1000.03
2022-12-15T04:00:43.873Z,1000.03
2022-12-15T04:01:44.190Z,1000.07
2022-12-15T04:02:44.454Z,1000.09
2022-12-15T04:03:44.630Z,1000.04
2022-12-15T04:04:44.792Z,1000.09
2022-12-15T04:05:45.049Z,1000.11
2022-12-15T04:06:45.304Z,1000.15
2022-12-15T04:07:45.584Z,1000.18
2022-12-15T04:08:52.834Z,1000.16
2022-12-15T04:09:46.091Z,1000.15
2022-12-15T04:10:46.350Z,1000.18
2022-12-15T04:11:52.544Z,1000.14
2022-12-15T04:12:46.890Z,1000.16
2022-12-15T04:13:47.131Z,1000.15
2022-12-15T04:14:49.602Z,1000.14
2022-12-15T04:15:47.658Z,1000.11
2022-12-15T04:16:47.973Z,1000.11
2022-12-15T04:17:48.119Z,1000.13
2022-12-15T04:18:48.891Z,1000.14
2022-12-15T04:19:48.585Z,1000.14
2022-12-15T04:20:50.120Z,1000.17
2022-12-15T04:21:49.081Z,1000.17
2022-12-15T04:22:49.367Z,1000.15
2022-12-15T04:23:49.616Z,1000.19
2022-12-15T04:24:49.893Z,1000.19
2022-12-15T04:25:50.148Z,1000.22
2022-12-15T04:26:50.528Z,1000.28
2022-12-15T04:27:50.707Z,1000.33
2022-12-15T04:28:50.981Z,1000.37
2022-12-15T04:29:51.235Z,1000.34
2022-12-15T04:30:51.577Z,1000.33
2022-12-15T04:31:51.722Z,1000.40
2022-12-15T04:32:52.006Z,1000.39
2022-12-15T04:33:52.262Z,1000.40
2022-12-15T04:34:52.520Z,1000.39
2022-12-15T04:35:52.774Z,1000.44
2022-12-15T04:36:53.039Z,1000.47
2022-12-15T04:37:53.311Z,1000.43
2022-12-15T04:38:53.580Z,1000.43
2022-12-15T04:39:53.841Z,1000.41
2022-12-15T04:40:54.106Z,1000.41
2022-12-15T04:41:54.376Z,1000.43
2022-12-15T04:42:54.638Z,1000.43
2022-12-15T04:43:54.894Z,1000.45
2022-12-15T04:44:55.153Z,1000.50
2022-12-15T04:45:55.429Z,1000.55
2022-12-15T04:46:55.673Z,1000.56
2022-12-15T04:47:55.943Z,1000.60
2022-12-15T04:48:56.205Z,1000.61
2022-12-15T04:49:56.598Z,1000.60
2022-12-15T04:50:56.760Z,1000.62
2022-12-15T04:51:57.012Z,1000.72
2022-12-15T04:52:57.329Z,1000.75
2022-12-15T04:53:57.463Z,1000.75
2022-12-15T04:54:57.733Z,1000.79
2022-12-15T04:55:57.994Z,1000.81
2022-12-15T04:56:58.259Z,1000.87
2022-12-15T04:57:58.529Z,1000.92
2022-12-15T04:58:58.794Z,1000.89
2022-12-15T04:59:59.039Z,1000.94
2022-12-15T05:00:59.439Z,1000.96
2022-12-15T05:01:59.731Z,1000.97
2022-12-15T05:02:59.836Z,1001.00
2022-12-15T05:03:59.973Z,1000.98
2022-12-15T05:05:00.236Z,1000.99
2022-12-15T05:06:00.490Z,1001.03
2022-12-15T05:07:00.764Z,1001.04
2022-12-15T05:08:01.034Z,1001.04
2022-12-15T05:09:01.301Z,1001.05
2022-12-15T05:10:03.375Z,1001.10
2022-12-15T05:11:01.794Z,1001.06
2022-12-15T05:12:02.047Z,1001.03
2022-12-15T05:13:02.336Z,1001.00
2022-12-15T05:14:02.594Z,1001.00
2022-12-15T05:15:02.862Z,1001.00
2022-12-15T05:16:03.160Z,1000.92
2022-12-15T05:17:03.431Z,1000.88
2022-12-15T05:18:03.634Z,1000.83
2022-12-15T05:19:03.889Z,1000.89
2022-12-15T05:20:04.151Z,1000.84
2022-12-15T05:21:04.370Z,1000.90
2022-12-15T05:22:04.638Z,1000.85
2022-12-15T05:23:04.924Z,1000.83
2022-12-15T05:24:05.188Z,1000.82
2022-12-15T05:25:05.448Z,1000.80
2022-12-15T05:26:05.716Z,1000.77
2022-12-15T05:27:05.983Z,1000.83
2022-12-15T05:28:06.246Z,1000.90
2022-12-15T05:29:06.522Z,1000.95
2022-12-15T05:30:06.773Z,1000.98
2022-12-15T05:31:07.136Z,1001.00
2022-12-15T05:32:07.288Z,1001.05
2022-12-15T05:33:07.570Z,1001.12
2022-12-15T05:34:07.828Z,1001.14
2022-12-15T05:35:08.117Z,1001.16
2022-12-15T05:36:08.416Z,1001.17
2022-12-15T05:37:08.586Z,1001.18
2022-12-15T05:38:08.852Z,1001.23
2022-12-15T05:39:09.120Z,1001.25
2022-12-15T05:40:09.372Z,1001.20
2022-12-15T05:41:09.667Z,1001.22
2022-12-15T05:42:09.849Z,1001.21
2022-12-15T05:43:10.011Z,1001.22
2022-12-15T05:44:10.264Z,1001.22
2022-12-15T05:45:10.528Z,1001.25
2022-12-15T05:46:10.824Z,1001.21
2022-12-15T05:47:11.072Z,1001.25
2022-12-15T05:48:11.355Z,1001.26
2022-12-15T05:49:11.623Z,1001.28
2022-12-15T05:50:11.885Z,1001.24
2022-12-15T05:51:12.156Z,1001.31
2022-12-15T05:52:12.429Z,1001.24
2022-12-15T05:53:12.745Z,1001.27
2022-12-15T05:54:12.931Z,1001.33
2022-12-15T05:55:13.075Z,1001.37
2022-12-15T05:56:13.339Z,1001.34
2022-12-15T05:57:13.608Z,1001.34
2022-12-15T05:58:13.877Z,1001.41
2022-12-15T05:59:14.155Z,1001.40
2022-12-15T06:00:14.426Z,1001.44
2022-12-15T06:01:14.750Z,1001.49
2022-12-15T06:02:14.979Z,1001.52
2022-12-15T06:03:15.206Z,1001.48
2022-12-15T06:04:15.371Z,1001.42
2022-12-15T06:05:15.521Z,1001.36
2022-12-15T06:06:15.792Z,1001.32
2022-12-15T06:07:16.068Z,1001.34
2022-12-15T06:08:16.359Z,1001.36
2022-12-15T06:09:16.511Z,1001.42
2022-12-15T06:10:16.777Z,1001.58
2022-12-15T06:11:17.047Z,1001.77
2022-12-15T06:12:17.299Z,1001.76
2022-12-15T06:13:17.602Z,1001.73
2022-12-15T06:14:17.755Z,1001.79
2022-12-15T06:15:18.020Z,1001.78
2022-12-15T06:16:18.291Z,1001.75
2022-12-15T06:17:18.558Z,1001.78
2022-12-15T06:18:18.833Z,1001.77
2022-12-15T06:19:19.092Z,1001.71
2022-12-15T06:20:19.348Z,1001.73
2022-12-15T06:21:19.618Z,1001.71
2022-12-15T06:22:19.871Z,1001.69
2022-12-15T06:23:20.141Z,1001.70
2022-12-15T06:24:20.399Z,1001.67
2022-12-15T06:25:20.665Z,1001.75
2022-12-15T06:26:20.922Z,1001.72
2022-12-15T06:27:21.213Z,1001.71
2022-12-15T06:28:21.363Z,1001.69
2022-12-15T06:29:21.633Z,1001.69
2022-12-15T06:30:21.898Z,1001.67
2022-12-15T06:31:22.211Z,1001.70
2022-12-15T06:32:22.450Z,1001.69
2022-12-15T06:33:22.742Z,1001.71
2022-12-15T06:34:22.905Z,1001.73
2022-12-15T06:35:23.162Z,1001.73
2022-12-15T06:36:23.438Z,1001.71
2022-12-15T06:37:23.732Z,1001.66
2022-12-15T06:38:24.026Z,1001.62
2022-12-15T06:39:24.192Z,1001.61
2022-12-15T06:40:24.473Z,1001.59
2022-12-15T06:41:24.747Z,1001.63
2022-12-15T06:42:25.022Z,1001.62
2022-12-15T06:43:25.314Z,1001.60
2022-12-15T06:44:25.482Z,1001.61
2022-12-15T06:45:25.749Z,1001.64
2022-12-15T06:46:26.086Z,1001.67
2022-12-15T06:47:26.258Z,1001.66
2022-12-15T06:48:26.558Z,1001.75
2022-12-15T06:49:26.718Z,1001.74
2022-12-15T06:50:26.990Z,1001.76
2022-12-15T06:51:27.240Z,1001.75
2022-12-15T06:52:27.520Z,1001.75
2022-12-15T06:53:27.955Z,1001.82
2022-12-15T06:54:28.028Z,1001.84
2022-12-15T06:55:28.274Z,1001.88
2022-12-15T06:56:33.085Z,1001.89
2022-12-15T06:57:29.738Z,1001.90
2022-12-15T06:58:29.043Z,1001.89
2022-12-15T06:59:29.204Z,1001.93
2022-12-15T07:00:29.542Z,1001.97
2022-12-15T07:01:29.836Z,1002.01
2022-12-15T07:02:30.045Z,1002.05
2022-12-15T07:03:30.758Z,1002.07
2022-12-15T07:04:30.351Z,1002.11
2022-12-15T07:05:30.538Z,1002.12
2022-12-15T07:06:30.820Z,1002.11
2022-12-15T07:07:31.102Z,1002.11
2022-12-15T07:08:35.347Z,1002.11
2022-12-15T07:09:32.619Z,1002.18
2022-12-15T07:10:31.898Z,1002.24
2022-12-15T07:11:32.185Z,1002.32
2022-12-15T07:12:32.495Z,1002.37
2022-12-15T07:13:33.193Z,1002.43
2022-12-15T07:14:33.049Z,1002.41
2022-12-15T07:15:33.208Z,1002.43
2022-12-15T07:16:33.583Z,1002.38
2022-12-15T07:17:33.675Z,1002.43
2022-12-15T07:18:33.971Z,1002.42
2022-12-15T07:19:34.236Z,1002.48
2022-12-15T07:20:34.503Z,1002.47
2022-12-15T07:21:34.784Z,1002.50
2022-12-15T07:22:35.052Z,1002.49
2022-12-15T07:23:53.639Z,1002.53
2022-12-15T07:24:36.551Z,1002.51
2022-12-15T07:25:35.793Z,1002.55
2022-12-15T07:26:36.067Z,1002.55
2022-12-15T07:27:36.332Z,1002.51
2022-12-15T07:28:36.618Z,1002.52
2022-12-15T07:29:36.879Z,1002.59
2022-12-15T07:30:39.098Z,1002.58
2022-12-15T07:31:37.399Z,1002.59
2022-12-15T07:32:37.573Z,1002.60
2022-12-15T07:33:37.863Z,1002.58
2022-12-15T07:34:38.147Z,1002.53
2022-12-15T07:35:39.302Z,1002.59
2022-12-15T07:36:38.686Z,1002.60
2022-12-15T07:37:38.957Z,1002.67
2022-12-15T07:38:39.263Z,1002.73
2022-12-15T07:39:39.511Z,1002.71
2022-12-15T07:40:39.779Z,1002.66
2022-12-15T07:41:40.037Z,1002.64
2022-12-15T07:42:40.336Z,1002.66
2022-12-15T07:43:40.646Z,1002.73
2022-12-15T07:44:40.783Z,1002.71
2022-12-15T07:45:41.084Z,1002.70
2022-12-15T07:46:41.427Z,1002.78
2022-12-15T07:47:41.570Z,1002.85
2022-12-15T07:48:41.852Z,1002.72
2022-12-15T07:49:42.095Z,1002.71
2022-12-15T07:50:42.381Z,1002.70
2022-12-15T07:51:42.511Z,1002.70
2022-12-15T07:52:42.764Z,1002.71
2022-12-15T07:53:43.031Z,1002.66
2022-12-15T07:54:43.277Z,1002.75
2022-12-15T07:56:06.445Z,1002.80
2022-12-15T07:56:44.716Z,1002.75
2022-12-15T07:57:44.887Z,1002.83
2022-12-15T07:58:44.167Z,1002.76
2022-12-15T07:59:44.281Z,1002.73
2022-12-15T08:00:48.855Z,1002.77
2022-12-15T08:01:44.883Z,1002.78
2022-12-15T08:02:45.127Z,1002.74
2022-12-15T08:03:46.202Z,1002.75
2022-12-15T08:04:45.408Z,1002.73
2022-12-15T08:05:45.639Z,1002.73
2022-12-15T08:06:45.883Z,1002.74
2022-12-15T08:07:46.106Z,1002.79
2022-12-15T08:08:50.472Z,1002.81
2022-12-15T08:09:46.535Z,1002.85
2022-12-15T08:10:46.769Z,1002.86
2022-12-15T08:11:46.993Z,1002.88
2022-12-15T08:12:47.245Z,1002.92
2022-12-15T08:14:04.369Z,1002.87
2022-12-15T08:14:50.043Z,1002.89
2022-12-15T08:15:47.791Z,1002.94
2022-12-15T08:16:48.075Z,1002.94
2022-12-15T08:17:48.213Z,1002.95
2022-12-15T08:18:48.756Z,1002.92
2022-12-15T08:19:48.711Z,1002.89
2022-12-15T08:20:50.374Z,1002.89
2022-12-15T08:21:49.103Z,1002.89
2022-12-15T08:22:49.345Z,1002.97
2022-12-15T08:23:49.600Z,1002.98
2022-12-15T08:24:49.857Z,1002.97
2022-12-15T08:25:50.092Z,1003.07
2022-12-15T08:26:50.634Z,1003.05
2022-12-15T08:27:50.551Z,1003.08
2022-12-15T08:28:50.824Z,1003.13
2022-12-15T08:29:52.237Z,1003.07
2022-12-15T08:30:51.174Z,1003.11
2022-12-15T08:31:51.492Z,1003.16
2022-12-15T08:32:52.225Z,1003.20
2022-12-15T08:33:51.831Z,1003.13
2022-12-15T08:34:52.069Z,1003.07
2022-12-15T08:35:57.112Z,1003.07
2022-12-15T08:36:53.452Z,1003.11
2022-12-15T08:37:52.669Z,1003.08
2022-12-15T08:38:52.900Z,1003.09
2022-12-15T08:39:53.114Z,1003.11
2022-12-15T08:40:53.330Z,1003.03
2022-12-15T08:41:53.531Z,1003.12
2022-12-15T08:42:53.757Z,1003.08
2022-12-15T08:43:53.954Z,1003.13
2022-12-15T08:44:54.162Z,1003.13
2022-12-15T08:45:54.403Z,1003.15
2022-12-15T08:46:54.597Z,1003.08
2022-12-15T08:47:54.774Z,1003.05
2022-12-15T08:48:54.979Z,1003.06
2022-12-15T08:49:55.181Z,1003.07
2022-12-15T08:50:55.377Z,1003.07
2022-12-15T08:51:55.566Z,1003.06
2022-12-15T08:53:28.950Z,1003.05
2022-12-15T08:53:56.922Z,1003.03
2022-12-15T08:54:56.108Z,1003.01
2022-12-15T08:55:56.285Z,1003.01
2022-12-15T08:56:56.473Z,1003.05
2022-12-15T08:57:56.649Z,1003.04
2022-12-15T08:58:56.830Z,1003.13
2022-12-15T08:59:57.021Z,1003.10
2022-12-15T09:00:57.234Z,1003.18
2022-12-15T09:01:57.528Z,1003.05
2022-12-15T09:02:57.577Z,1003.15
2022-12-15T09:03:57.763Z,1003.13
2022-12-15T09:04:57.952Z,1003.10
2022-12-15T09:05:58.113Z,1003.12
2022-12-15T09:06:58.276Z,1003.09
2022-12-15T09:08:03.073Z,1003.11
2022-12-15T09:08:59.656Z,1003.10
2022-12-15T09:09:58.799Z,1003.14
2022-12-15T09:10:58.956Z,1003.10
2022-12-15T09:11:59.085Z,1003.13
2022-12-15T09:12:59.209Z,1003.12
2022-12-15T09:13:59.329Z,1003.16
2022-12-15T09:14:59.454Z,1003.18
2022-12-15T09:16:09.403Z,1003.18
2022-12-15T09:17:00.921Z,1003.20
2022-12-15T09:17:59.860Z,1003.17
2022-12-15T09:18:59.973Z,1003.18
2022-12-15T09:20:00.046Z,1003.22
2022-12-15T09:21:00.167Z,1003.24
2022-12-15T09:22:00.267Z,1003.15
2022-12-15T09:23:00.347Z,1003.18
2022-12-15T09:24:00.711Z,1003.19
2022-12-15T09:25:00.565Z,1003.12
2022-12-15T09:26:00.665Z,1003.11
2022-12-15T09:27:00.797Z,1003.09
2022-12-15T09:28:00.883Z,1003.16
2022-12-15T09:29:00.986Z,1003.10
2022-12-15T09:30:01.094Z,1003.14
2022-12-15T09:31:01.273Z,1003.21
2022-12-15T09:32:01.537Z,1003.23
2022-12-15T09:33:01.584Z,1003.21
2022-12-15T09:34:01.661Z,1003.23
2022-12-15T09:35:01.767Z,1003.29
2022-12-15T09:36:01.834Z,1003.27
2022-12-15T09:37:02.038Z,1003.25
2022-12-15T09:38:02.091Z,1003.28
2022-12-15T09:39:02.314Z,1003.29
2022-12-15T09:40:02.396Z,1003.18
2022-12-15T09:41:02.463Z,1003.16
2022-12-15T09:42:02.635Z,1003.09
2022-12-15T09:43:32.798Z,1003.08
2022-12-15T09:44:03.931Z,1003.08
2022-12-15T09:45:03.121Z,1003.14
2022-12-15T09:46:03.198Z,1003.14
2022-12-15T09:47:03.339Z,1003.15
2022-12-15T09:48:03.488Z,1003.13
2022-12-15T09:49:03.659Z,1003.17
2022-12-15T09:50:03.822Z,1003.20
2022-12-15T09:51:03.965Z,1003.19
2022-12-15T09:52:09.003Z,1003.21
2022-12-15T09:53:17.711Z,1003.21
2022-12-15T09:54:06.078Z,1003.21
2022-12-15T09:55:04.496Z,1003.21
2022-12-15T09:56:04.520Z,1003.16
2022-12-15T09:57:04.657Z,1003.13
2022-12-15T09:58:10.659Z,1003.15
2022-12-15T09:59:05.884Z,1003.16
2022-12-15T10:00:05.037Z,1003.17
2022-12-15T10:01:05.189Z,1003.19
2022-12-15T10:02:05.443Z,1003.21
2022-12-15T10:03:05.616Z,1003.22
2022-12-15T10:04:12.169Z,1003.23
2022-12-15T10:05:05.706Z,1003.28
2022-12-15T10:06:22.298Z,1003.23
2022-12-15T10:07:06.936Z,1003.22
2022-12-15T10:08:06.047Z,1003.21
2022-12-15T10:09:13.182Z,1003.21
2022-12-15T10:10:06.296Z,1003.25
2022-12-15T10:11:09.170Z,1003.25
2022-12-15T10:12:06.503Z,1003.33
2022-12-15T10:13:06.636Z,1003.24
2022-12-15T10:14:06.784Z,1003.30
2022-12-15T10:15:06.940Z,1003.25
2022-12-15T10:16:07.195Z,1003.32
2022-12-15T10:17:07.278Z,1003.35
2022-12-15T10:18:07.363Z,1003.33
2022-12-15T10:19:07.480Z,1003.36
2022-12-15T10:20:07.619Z,1003.32
2022-12-15T10:21:07.781Z,1003.27
2022-12-15T10:22:07.929Z,1003.33
2022-12-15T10:23:08.103Z,1003.38
2022-12-15T10:24:08.405Z,1003.38
2022-12-15T10:25:10.209Z,1003.37
2022-12-15T10:26:08.527Z,1003.34
2022-12-15T10:27:08.706Z,1003.36
2022-12-15T10:28:08.845Z,1003.29
2022-12-15T10:29:09.010Z,1003.30
2022-12-15T10:30:09.273Z,1003.37
2022-12-15T10:31:09.418Z,1003.38
2022-12-15T10:32:09.508Z,1003.33
2022-12-15T10:33:09.660Z,1003.35
2022-12-15T10:34:09.830Z,1003.29
2022-12-15T10:35:10.022Z,1003.32
2022-12-15T10:36:10.197Z,1003.40
2022-12-15T10:37:10.396Z,1003.36
2022-12-15T10:38:10.563Z,1003.31
2022-12-15T10:40:11.911Z,1003.38
2022-12-15T10:41:11.108Z,1003.35
2022-12-15T10:42:11.280Z,1003.40
2022-12-15T10:43:11.480Z,1003.41
2022-12-15T10:44:11.657Z,1003.36
2022-12-15T10:45:11.850Z,1003.37
2022-12-15T10:46:12.127Z,1003.29
2022-12-15T10:47:12.219Z,1003.27
2022-12-15T10:48:12.418Z,1003.27
2022-12-15T10:49:12.582Z,1003.25
2022-12-15T10:50:12.744Z,1003.28
2022-12-15T10:51:12.919Z,1003.26
2022-12-15T10:52:13.048Z,1003.26
2022-12-15T10:53:13.166Z,1003.26
2022-12-15T10:54:13.351Z,1003.31
2022-12-15T10:55:13.415Z,1003.32
2022-12-15T10:56:13.586Z,1003.32
2022-12-15T10:57:13.750Z,1003.39
2022-12-15T10:58:13.907Z,1003.35
2022-12-15T10:59:14.036Z,1003.40
2022-12-15T11:00:14.169Z,1003.37
2022-12-15T11:01:14.353Z,1003.42
2022-12-15T11:02:19.484Z,1003.45
2022-12-15T11:03:15.616Z,1003.39
2022-12-15T11:04:14.632Z,1003.43
2022-12-15T11:05:14.750Z,1003.48
2022-12-15T11:06:14.922Z,1003.51
2022-12-15T11:07:15.087Z,1003.54
2022-12-15T11:08:15.254Z,1003.56
2022-12-15T11:09:15.429Z,1003.55
2022-12-15T11:10:15.621Z,1003.53
2022-12-15T11:11:15.723Z,1003.55
2022-12-15T11:12:15.830Z,1003.58
2022-12-15T11:13:15.925Z,1003.64
2022-12-15T11:14:16.034Z,1003.62
2022-12-15T11:15:16.148Z,1003.65
2022-12-15T11:16:16.303Z,1003.65
2022-12-15T11:17:16.430Z,1003.74
2022-12-15T11:18:16.581Z,1003.72
2022-12-15T11:19:16.729Z,1003.75
2022-12-15T11:20:16.905Z,1003.77
2022-12-15T11:21:17.090Z,1003.79
2022-12-15T11:22:17.247Z,1003.81
2022-12-15T11:23:17.432Z,1003.76
2022-12-15T11:24:17.624Z,1003.77
2022-12-15T11:25:17.786Z,1003.80
2022-12-15T11:26:17.986Z,1003.81
2022-12-15T11:27:18.179Z,1003.81
2022-12-15T11:28:18.360Z,1003.80
2022-12-15T11:29:18.548Z,1003.80
2022-12-15T11:30:18.769Z,1003.78
2022-12-15T11:31:18.973Z,1003.76
2022-12-15T11:32:19.163Z,1003.72
2022-12-15T11:33:19.341Z,1003.69
2022-12-15T11:34:19.533Z,1003.68
2022-12-15T11:35:19.722Z,1003.68
2022-12-15T11:36:19.921Z,1003.63
2022-12-15T11:37:20.137Z,1003.66
2022-12-15T11:38:20.346Z,1003.68
2022-12-15T11:39:20.474Z,1003.64
2022-12-15T11:40:20.720Z,1003.64
2022-12-15T11:41:23.291Z,1003.67
2022-12-15T11:42:20.922Z,1003.67
2022-12-15T11:43:21.131Z,1003.69
2022-12-15T11:44:21.363Z,1003.75
2022-12-15T11:45:21.525Z,1003.72
2022-12-15T11:46:21.720Z,1003.70
2022-12-15T11:47:21.893Z,1003.71
2022-12-15T11:48:22.113Z,1003.69
2022-12-15T11:49:22.159Z,1003.65
2022-12-15T11:50:22.328Z,1003.59
2022-12-15T11:51:22.532Z,1003.62
2022-12-15T11:52:22.698Z,1003.60
2022-12-15T11:53:22.949Z,1003.59
2022-12-15T11:54:22.998Z,1003.57
2022-12-15T11:56:24.343Z,1003.55
2022-12-15T11:57:23.452Z,1003.55
2022-12-15T11:58:23.559Z,1003.51
2022-12-15T11:59:23.634Z,1003.51
2022-12-15T12:00:23.829Z,1003.56
2022-12-15T12:01:24.052Z,1003.51
2022-12-15T12:02:24.257Z,1003.50
2022-12-15T12:03:24.307Z,1003.49
2022-12-15T12:04:24.347Z,1003.51
2022-12-15T12:05:24.403Z,1003.47
2022-12-15T12:06:24.613Z,1003.47
2022-12-15T12:07:24.684Z,1003.50
2022-12-15T12:08:24.903Z,1003.46
2022-12-15T12:09:24.968Z,1003.47
2022-12-15T12:10:25.173Z,1003.42
2022-12-15T12:11:25.456Z,1003.46
2022-12-15T12:12:25.487Z,1003.40
2022-12-15T12:13:25.580Z,1003.44
2022-12-15T12:14:25.672Z,1003.44
2022-12-15T12:15:25.794Z,1003.45
2022-12-15T12:16:25.875Z,1003.46
2022-12-15T12:17:25.930Z,1003.43